Time;durP1;ratioP1;P1;durP2;ratioP2;P2;SDS_P1;SDS_P2;PMS_P1;PMS_P2;Temp;Humidity;BMP_temperature;BMP_pressure;BME280_temperature;BME280_humidity;BME280_pressure;Samples;Min_cycle;Max_cycle;Signal;HPM_P1;HPM_P2
2021/04/27 00:01:32;;;;;;;9.20;4.47;;;6.80;99.90;;;-143.32;61.56;55503.59;4889009;29;20444;-92
2021/04/27 00:03:59;;;;;;;9.13;4.63;;;6.70;99.90;;;-143.32;62.17;55499.53;4890399;29;20445;-92
2021/04/27 00:06:26;;;;;;;13.10;4.90;;;6.80;99.90;;;-143.32;61.90;55493.47;4895480;29;20441;-94
2021/04/27 00:08:52;;;;;;;5.70;4.53;;;6.70;99.90;;;-143.32;62.33;55533.91;4892490;29;20900;-93
2021/04/27 00:11:19;;;;;;;10.23;4.10;;;6.70;99.90;;;-143.32;62.96;55497.53;4893093;29;20459;-93
2021/04/27 00:13:46;;;;;;;10.03;4.63;;;6.70;99.90;;;-143.32;63.23;55517.72;4892993;29;20453;-92
2021/04/27 00:16:14;;;;;;;6.23;4.47;;;6.60;99.90;;;-143.32;63.50;55515.72;4890538;29;20460;-93
2021/04/27 00:18:41;;;;;;;6.93;4.70;;;6.60;99.90;;;-143.32;63.71;55495.50;4888064;29;20453;-93
2021/04/27 00:21:08;;;;;;;7.03;4.87;;;6.50;99.90;;;-143.32;63.90;55483.38;4890444;29;20521;-92
2021/04/27 00:23:37;;;;;;;6.70;4.67;;;6.50;99.90;;;-143.32;64.27;55511.66;4888511;29;20460;-93
2021/04/27 00:26:04;;;;;;;9.70;4.60;;;6.60;99.90;;;-143.32;63.43;55517.72;4893984;29;20464;-93
2021/04/27 00:28:30;;;;;;;7.80;4.90;;;6.50;99.90;;;-143.32;64.13;55525.81;4889910;29;20501;-92
2021/04/27 00:30:57;;;;;;;7.63;4.80;;;6.40;99.90;;;-143.32;64.86;55501.56;4892220;29;20504;-91
2021/04/27 00:33:25;;;;;;;5.50;4.50;;;6.50;99.90;;;-143.32;64.13;55513.69;4886122;29;20781;-93
2021/04/27 00:35:52;;;;;;;9.53;4.40;;;6.40;99.90;;;-143.32;64.50;55473.28;4886011;29;20457;-91
2021/04/27 00:38:20;;;;;;;12.57;4.40;;;6.30;99.90;;;-143.32;64.60;55487.41;4886241;29;20527;-94
2021/04/27 00:40:47;;;;;;;8.37;5.00;;;6.30;99.90;;;-143.32;64.43;55527.84;4885400;29;20464;-92
2021/04/27 00:43:14;;;;;;;5.57;4.30;;;6.20;99.90;;;-143.32;64.79;55535.91;4886403;29;20461;-93
2021/04/27 00:45:41;;;;;;;7.07;5.43;;;6.30;99.90;;;-143.32;65.51;55509.66;4886244;29;20453;-93
2021/04/27 00:48:08;;;;;;;6.60;4.90;;;6.10;99.90;;;-143.32;65.62;55521.78;4886324;29;20464;-91
2021/04/27 00:50:38;;;;;;;8.07;4.83;;;6.10;99.90;;;-143.32;65.26;55497.53;4886404;29;20457;-93
2021/04/27 00:53:07;;;;;;;11.63;5.30;;;6.20;99.90;;;-143.32;64.58;55505.59;4886032;29;20457;-92
2021/04/27 00:55:34;;;;;;;6.43;4.77;;;6.10;99.90;;;-143.32;65.01;55503.59;4884712;29;20465;-93
2021/04/27 00:58:02;;;;;;;6.50;4.77;;;6.10;99.90;;;-143.32;64.60;55503.59;4884823;29;20477;-92
2021/04/27 01:00:31;;;;;;;8.90;4.70;;;6.20;99.90;;;-143.32;64.88;55550.06;4883340;29;20945;-92
2021/04/27 01:03:01;;;;;;;8.87;5.30;;;6.00;99.90;;;-143.32;65.15;55513.69;4885062;29;20509;-92
2021/04/27 01:05:34;;;;;;;13.03;5.20;;;6.00;99.90;;;-143.32;65.10;55493.47;4885489;29;20588;-93
2021/04/27 01:08:10;;;;;;;13.20;5.17;;;6.00;99.90;;;-143.32;65.33;55513.69;4884454;29;20422;-92
2021/04/27 01:10:45;;;;;;;9.50;4.67;;;6.00;99.90;;;-143.32;65.09;55562.19;4884955;29;20935;-92
2021/04/27 01:13:22;;;;;;;10.07;5.20;;;6.00;99.90;;;-143.32;65.64;55513.69;4884812;29;20422;-92
2021/04/27 01:15:50;;;;;;;6.50;4.83;;;5.90;99.90;;;-143.32;65.98;55546.03;4883867;29;20524;-90
2021/04/27 01:18:19;;;;;;;7.10;4.73;;;5.80;99.90;;;-143.32;66.46;55525.81;4882941;29;20484;-93
2021/04/27 01:20:50;;;;;;;10.57;5.03;;;5.70;99.90;;;-143.32;66.64;55525.81;4883862;29;20537;-91
2021/04/27 01:23:57;;;;;;;12.67;5.20;;;5.70;99.90;;;-143.32;66.82;55531.88;4884602;29;20481;-92
2021/04/27 01:26:42;;;;;;;10.93;5.60;;;5.60;99.90;;;-143.32;67.00;55523.78;4885841;29;20540;-92
2021/04/27 01:29:11;;;;;;;7.90;5.10;;;5.60;99.90;;;-143.32;66.75;55521.78;4886556;29;20488;-91
2021/04/27 01:31:39;;;;;;;10.50;5.30;;;5.60;99.90;;;-143.32;67.02;55558.16;4884819;29;20992;-92
2021/04/27 01:34:07;;;;;;;8.50;5.53;;;5.60;99.90;;;-143.32;67.15;55548.03;4884328;29;20460;-92
2021/04/27 01:36:36;;;;;;;6.90;5.07;;;5.50;99.90;;;-143.32;67.15;55487.41;4884046;29;20460;-93
2021/04/27 01:39:08;;;;;;;10.37;5.13;;;5.40;99.90;;;-143.32;66.91;55521.78;4883733;29;20445;-93
2021/04/27 01:41:37;;;;;;;14.37;5.50;;;5.50;99.90;;;-143.32;66.87;55535.91;4883197;29;20470;-91
2021/04/27 01:44:06;;;;;;;7.37;5.30;;;5.50;99.90;;;-143.32;67.20;55535.91;4884318;29;20469;-92
2021/04/27 01:46:33;;;;;;;7.13;4.50;;;5.50;99.90;;;-143.32;67.19;55572.28;4884329;29;20453;-92
2021/04/27 01:49:00;;;;;;;7.83;5.63;;;5.40;99.90;;;-143.32;66.86;55515.72;4883372;29;20500;-92
2021/04/27 01:51:28;;;;;;;6.87;4.90;;;5.60;99.90;;;-143.32;66.94;55525.81;4884958;29;20832;-92
2021/04/27 01:53:55;;;;;;;9.13;4.87;;;5.40;99.90;;;-143.32;66.28;55515.72;4884418;29;20464;-93
2021/04/27 01:56:22;;;;;;;6.30;4.53;;;5.50;99.90;;;-143.32;66.19;55552.09;4883761;29;20495;-91
2021/04/27 01:58:51;;;;;;;7.30;5.30;;;5.40;99.90;;;-143.32;66.04;55568.25;4883756;29;20461;-92
2021/04/27 02:01:18;;;;;;;9.53;5.23;;;5.50;99.90;;;-143.32;66.59;55546.03;4883646;29;20832;-93
2021/04/27 02:03:47;;;;;;;8.80;5.23;;;5.40;99.90;;;-143.32;65.83;55527.84;4883459;29;20460;-92
2021/04/27 02:06:18;;;;;;;8.93;5.10;;;5.40;99.90;;;-143.32;65.81;55570.28;4884573;29;20480;-93
2021/04/27 02:08:52;;;;;;;6.23;4.70;;;5.40;99.90;;;-143.32;65.63;55552.09;4884194;29;20837;-92
2021/04/27 02:11:21;;;;;;;8.00;4.73;;;5.30;99.90;;;-143.32;64.73;55539.97;4883069;29;20460;-92
2021/04/27 02:13:47;;;;;;;9.67;4.90;;;5.30;99.90;;;-143.32;65.11;55529.84;4885040;29;20455;-91
2021/04/27 02:16:22;;;;;;;11.40;4.50;;;5.40;99.90;;;-143.32;64.27;55533.91;4883307;29;20457;-92
2021/04/27 02:19:02;;;;;;;10.23;4.67;;;5.50;99.90;;;-143.32;64.46;55580.38;4886802;29;20439;-92
2021/04/27 02:21:33;;;;;;;9.97;4.80;;;5.40;99.90;;;-143.32;64.52;55511.66;4884939;29;20448;-93
2021/04/27 02:24:01;;;;;;;8.33;4.90;;;5.40;99.90;;;-143.32;64.14;55574.31;4884713;29;20445;-91
2021/04/27 02:26:30;;;;;;;8.27;5.30;;;5.40;99.90;;;-143.32;64.03;55594.53;4883774;29;20944;-94
2021/04/27 02:28:58;;;;;;;8.17;5.23;;;5.40;99.90;;;-143.32;64.14;55582.41;4884717;29;20492;-92
2021/04/27 02:31:25;;;;;;;7.83;4.70;;;5.30;99.90;;;-143.32;64.20;55568.25;4884246;29;20449;-94
2021/04/27 02:33:52;;;;;;;9.57;5.23;;;5.40;99.90;;;-143.32;63.56;55566.22;4884266;29;20929;-91
2021/04/27 02:36:19;;;;;;;9.63;5.03;;;5.40;99.90;;;-143.32;64.10;55527.84;4883853;29;20955;-91
2021/04/27 02:38:48;;;;;;;9.83;5.73;;;5.30;99.90;;;-143.32;63.50;55564.22;4883717;29;20952;-91
2021/04/27 02:41:15;;;;;;;14.03;5.53;;;5.30;99.90;;;-143.32;63.77;55584.41;4884945;29;20533;-93
2021/04/27 02:43:45;;;;;;;6.97;4.93;;;5.30;99.90;;;-143.32;63.16;55550.06;4885099;29;20802;-94
2021/04/27 02:46:12;;;;;;;6.67;4.90;;;5.30;99.90;;;-143.32;63.53;55572.28;4884135;29;20442;-93
2021/04/27 02:48:40;;;;;;;13.20;4.93;;;5.30;99.90;;;-143.32;64.99;55537.94;4883740;29;20837;-93
2021/04/27 02:51:07;;;;;;;7.80;5.37;;;5.20;99.90;;;-143.32;65.74;55556.13;4884009;29;20468;-93
2021/04/27 02:53:37;;;;;;;11.57;4.90;;;5.20;99.90;;;-143.32;65.91;55541.97;4882708;29;20968;-93
2021/04/27 02:56:04;;;;;;;15.17;4.97;;;5.20;99.90;;;-143.32;66.48;55550.06;4883308;29;20453;-93
2021/04/27 02:58:31;;;;;;;6.23;4.43;;;5.00;99.90;;;-143.32;66.67;55578.34;4883888;29;20460;-93
2021/04/27 03:00:58;;;;;;;6.70;4.73;;;4.80;99.90;;;-143.32;66.97;55529.84;4884273;29;20440;-92
2021/04/27 03:03:25;;;;;;;10.70;5.10;;;4.80;99.90;;;-143.32;67.04;55521.78;4883496;29;20801;-92
2021/04/27 03:05:52;;;;;;;6.83;4.97;;;4.90;99.90;;;-143.32;66.43;55570.28;4883065;29;20838;-94
2021/04/27 03:08:22;;;;;;;7.77;4.30;;;4.90;99.90;;;-143.32;66.95;55566.22;4883936;29;20453;-93
2021/04/27 03:10:48;;;;;;;9.80;4.43;;;4.90;99.90;;;-143.32;67.30;55570.28;4883718;29;20494;-92
2021/04/27 03:13:15;;;;;;;9.53;4.90;;;4.80;99.90;;;-143.32;67.62;55539.97;4883520;29;20608;-93
2021/04/27 03:15:42;;;;;;;9.83;4.90;;;4.80;99.90;;;-143.32;67.63;55572.28;4884160;29;20457;-93
2021/04/27 03:18:11;;;;;;;6.20;4.77;;;4.80;99.90;;;-143.32;68.08;55580.38;4883012;29;20463;-92
2021/04/27 03:20:41;;;;;;;9.90;5.40;;;4.70;99.90;;;-143.32;68.05;55588.47;4883661;29;20556;-92
2021/04/27 03:23:09;;;;;;;9.67;4.90;;;4.70;99.90;;;-143.32;67.70;55582.41;4884454;29;20457;-92
2021/04/27 03:25:36;;;;;;;5.93;4.53;;;4.60;99.90;;;-143.32;67.75;55584.41;4884110;29;20525;-91
2021/04/27 03:28:02;;;;;;;9.10;5.37;;;4.60;99.90;;;-143.32;67.43;55592.50;4879795;29;20813;-88
2021/04/27 03:30:29;;;;;;;6.53;4.37;;;4.60;99.90;;;-143.32;66.60;55574.31;4879681;29;20492;-89
2021/04/27 03:32:56;;;;;;;6.97;5.00;;;4.60;99.90;;;-143.32;66.38;55594.53;4881678;29;20804;-92
2021/04/27 03:35:22;;;;;;;5.90;4.50;;;4.70;99.90;;;-143.32;66.04;55602.59;4882916;29;20460;-92
2021/04/27 03:37:49;;;;;;;14.83;5.00;;;4.70;99.90;;;-143.32;65.50;55586.44;4883583;29;20442;-93
2021/04/27 03:40:17;;;;;;;8.83;5.03;;;4.60;99.90;;;-143.32;65.11;55574.31;4883176;29;20809;-92
2021/04/27 03:42:44;;;;;;;7.27;4.63;;;4.80;99.90;;;-143.32;64.44;55568.25;4882380;29;20461;-92
2021/04/27 03:45:16;;;;;;;7.30;4.60;;;4.80;99.90;;;-143.32;64.69;55566.22;4883183;29;20517;-94
2021/04/27 03:47:43;;;;;;;10.80;4.93;;;4.80;99.90;;;-143.32;64.20;55618.78;4884714;29;20429;-93
2021/04/27 03:50:16;;;;;;;6.70;4.30;;;4.80;99.90;;;-143.32;63.82;55592.50;4884640;29;20501;-94
2021/04/27 03:52:47;;;;;;;6.20;4.30;;;4.80;99.90;;;-143.32;63.51;55566.22;4891174;29;20544;-93
2021/04/27 03:55:15;;;;;;;9.50;4.40;;;5.00;99.90;;;-143.32;63.65;55576.34;4888975;29;20452;-94
2021/04/27 03:57:43;;;;;;;12.53;5.07;;;4.80;99.90;;;-143.32;63.52;55586.44;4887797;29;20590;-93
2021/04/27 04:00:11;;;;;;;7.90;4.67;;;4.80;99.90;;;-143.32;63.04;55590.47;4886385;29;20461;-93
2021/04/27 04:02:38;;;;;;;8.10;4.33;;;4.80;99.90;;;-143.32;63.22;55556.13;4886590;29;20460;-93
2021/04/27 04:05:06;;;;;;;9.23;4.60;;;4.80;99.90;;;-143.32;62.27;55612.72;4888330;29;20469;-94
2021/04/27 04:07:32;;;;;;;15.93;4.73;;;4.90;99.90;;;-143.32;62.38;55578.34;4886299;29;20441;-93
2021/04/27 04:09:59;;;;;;;6.50;3.87;;;4.90;99.90;;;-143.32;61.97;55604.63;4886931;29;20496;-94
2021/04/27 04:12:26;;;;;;;9.27;5.00;;;4.90;99.90;;;-143.32;62.13;55576.34;4887490;29;20445;-93
2021/04/27 04:14:54;;;;;;;5.63;4.50;;;5.10;99.90;;;-143.32;62.17;55590.47;4885886;29;20460;-92
2021/04/27 04:17:20;;;;;;;6.40;4.67;;;4.90;99.90;;;-143.32;62.01;55608.69;4882800;29;20441;-88
2021/04/27 04:19:48;;;;;;;8.77;4.33;;;4.90;99.90;;;-143.32;61.76;55590.47;4883195;29;21007;-89
2021/04/27 04:22:15;;;;;;;7.27;4.73;;;4.90;99.90;;;-143.32;62.13;55578.34;4882710;29;20468;-90
2021/04/27 04:24:42;;;;;;;10.90;5.20;;;4.90;99.90;;;-143.32;61.30;55580.38;4882776;29;20461;-91
2021/04/27 04:27:09;;;;;;;4.43;4.00;;;4.90;99.90;;;-143.32;62.09;55578.34;4882186;29;20953;-89
2021/04/27 04:29:37;;;;;;;7.87;4.93;;;4.90;99.90;;;-143.32;61.43;55574.31;4882295;29;20496;-88
2021/04/27 04:32:05;;;;;;;5.80;4.80;;;5.00;99.90;;;-143.32;61.56;55598.56;4883022;29;20457;-90
2021/04/27 04:34:32;;;;;;;8.93;4.67;;;5.00;99.90;;;-143.32;60.70;55586.44;4882398;29;20465;-90
2021/04/27 04:36:59;;;;;;;14.43;4.80;;;5.00;99.90;;;-143.32;61.26;55596.56;4882247;29;20995;-90
2021/04/27 04:39:27;;;;;;;5.40;4.07;;;5.00;99.90;;;-143.32;61.42;55636.97;4882277;29;20450;-90
2021/04/27 04:41:54;;;;;;;8.20;4.50;;;4.90;99.90;;;-143.32;61.37;55574.31;4881999;29;20457;-90
2021/04/27 04:44:21;;;;;;;7.67;4.57;;;4.90;99.90;;;-143.32;61.10;55622.81;4882236;29;20491;-89
2021/04/27 04:46:47;;;;;;;8.20;4.90;;;5.00;99.90;;;-143.32;60.46;55592.50;4882182;29;20499;-91
2021/04/27 04:49:15;;;;;;;9.47;4.90;;;5.00;99.90;;;-143.32;60.83;55560.16;4882499;29;20493;-90
2021/04/27 04:51:41;;;;;;;15.53;4.03;;;5.00;99.90;;;-143.32;60.26;55576.34;4881997;29;20504;-91
2021/04/27 04:54:08;;;;;;;12.23;4.53;;;5.20;99.90;;;-143.32;59.81;55602.59;4881637;29;20560;-90
2021/04/27 04:56:35;;;;;;;9.00;4.50;;;5.20;99.90;;;-143.32;59.23;55594.53;4882237;29;20449;-90
2021/04/27 04:59:07;;;;;;;8.63;4.70;;;5.20;99.90;;;-143.32;59.46;55600.59;4881776;29;20962;-90
2021/04/27 05:01:34;;;;;;;13.80;4.50;;;5.30;99.90;;;-143.32;59.73;55570.28;4881282;29;20477;-90
2021/04/27 05:04:04;;;;;;;5.80;4.17;;;5.20;99.90;;;-143.32;59.52;55584.41;4881918;29;20968;-90
2021/04/27 05:07:03;;;;;;;13.50;4.60;;;5.20;99.90;;;-143.32;59.18;55558.16;4881601;29;20433;-90
2021/04/27 05:09:37;;;;;;;6.97;4.60;;;5.30;99.90;;;-143.32;58.48;55584.41;4878132;29;20535;-93
2021/04/27 05:12:07;;;;;;;5.77;4.20;;;5.40;99.90;;;-143.32;58.47;55548.03;4881862;29;20418;-92
2021/04/27 05:14:42;;;;;;;14.07;4.73;;;5.50;99.90;;;-143.32;58.46;55564.22;4882018;29;20489;-92
2021/04/27 05:17:11;;;;;;;7.73;4.70;;;5.60;99.90;;;-143.32;58.20;55558.16;4881939;29;20483;-92
2021/04/27 05:19:38;;;;;;;10.47;4.67;;;5.60;99.90;;;-143.32;57.94;55548.03;4882068;29;20521;-93
2021/04/27 05:22:10;;;;;;;5.73;4.10;;;5.50;99.90;;;-143.32;57.91;55584.41;4881525;29;20488;-91
2021/04/27 05:24:40;;;;;;;5.67;4.47;;;5.50;99.90;;;-143.32;57.06;55582.41;4882417;29;20452;-90
2021/04/27 05:27:08;;;;;;;14.63;4.93;;;5.80;99.90;;;-143.32;57.46;55560.16;4882208;29;20433;-91
2021/04/27 05:29:37;;;;;;;9.90;4.40;;;5.60;99.90;;;-143.32;57.67;55535.91;4881545;29;20507;-90
2021/04/27 05:32:04;;;;;;;9.33;4.50;;;5.70;99.90;;;-143.32;56.45;55588.47;4881515;29;20492;-91
2021/04/27 05:34:50;;;;;;;5.73;4.27;;;5.80;99.90;;;-143.32;54.93;55590.47;4881547;29;20956;-89
2021/04/27 05:37:21;;;;;;;6.83;4.23;;;6.00;99.90;;;-143.32;53.99;55584.41;4881326;29;20476;-88
2021/04/27 05:39:47;;;;;;;8.93;4.47;;;6.10;99.90;;;-143.32;53.54;55548.03;4881174;29;20465;-87
2021/04/27 05:42:17;;;;;;;9.50;4.60;;;6.30;99.90;;;-143.32;52.63;55572.28;4881177;29;20457;-87
2021/04/27 05:44:43;;;;;;;5.03;3.90;;;6.50;99.90;;;-143.32;51.36;55527.84;4880754;29;20453;-88
2021/04/27 05:47:10;;;;;;;10.40;4.43;;;6.90;99.90;;;-143.32;48.77;55546.03;4881044;29;20457;-90
2021/04/27 05:49:37;;;;;;;7.87;4.10;;;7.60;99.90;;;-143.32;46.30;55523.78;4883162;29;21170;-89
2021/04/27 05:52:08;;;;;;;12.00;4.83;;;8.20;99.90;;;-143.32;46.15;55499.53;4899716;29;20912;-89
2021/04/27 05:54:38;;;;;;;14.03;4.43;;;8.40;99.90;;;-143.32;44.97;55495.50;4899683;29;20453;-88
2021/04/27 05:57:07;;;;;;;10.83;3.60;;;8.50;99.90;;;-143.32;43.11;55511.66;4899916;29;20456;-89
2021/04/27 05:59:33;;;;;;;13.43;4.07;;;8.70;99.90;;;-143.32;43.28;55483.38;4899335;29;20472;-88
2021/04/27 06:02:00;;;;;;;8.57;4.33;;;9.00;99.90;;;-143.32;42.37;55521.78;4899191;29;20459;-88
2021/04/27 06:04:27;;;;;;;6.53;3.70;;;9.30;99.90;;;-143.32;41.24;55475.28;4899157;29;20479;-88
2021/04/27 06:06:54;;;;;;;6.40;3.17;;;9.50;99.90;;;-143.32;41.32;55501.56;4899432;29;20856;-88
2021/04/27 06:09:23;;;;;;;10.17;4.30;;;9.30;99.90;;;-143.32;41.33;55521.78;4899308;29;20610;-87
2021/04/27 06:11:56;;;;;;;5.17;3.50;;;9.30;99.90;;;-143.32;40.20;55447.00;4899139;29;20799;-87
2021/04/27 06:21:50;;;;;;;7.60;3.60;;;10.20;99.90;;;-143.32;37.82;55463.16;4899198;29;20461;-91
2021/04/27 06:24:17;;;;;;;6.50;3.60;;;10.30;98.70;;;-143.32;37.75;55529.84;4900112;29;20499;-91
2021/04/27 06:26:46;;;;;;;4.30;3.40;;;10.30;97.00;;;-143.32;38.04;55475.28;4899442;29;20860;-90
2021/04/27 06:32:54;;;;;;;5.60;3.30;;;10.20;95.30;;;-143.32;37.26;55469.22;4899097;29;20411;-90
2021/04/27 06:35:25;;;;;;;8.50;3.47;;;10.40;94.90;;;-143.32;36.84;55469.22;4898941;29;20548;-90
2021/04/27 06:41:33;;;;;;;11.70;3.60;;;10.70;92.30;;;-143.32;36.67;55477.31;4898740;29;20983;-89
2021/04/27 06:44:00;;;;;;;5.83;3.57;;;10.40;91.10;;;-143.32;36.36;55485.41;4898818;29;20485;-89
2021/04/27 06:50:11;;;;;;;8.30;4.20;;;10.40;90.60;;;-143.32;35.67;55485.41;4898470;29;20598;-89
2021/04/27 06:52:38;;;;;;;8.47;3.57;;;10.70;90.50;;;-143.32;34.45;55453.06;4898712;29;20511;-90
2021/04/27 06:55:06;;;;;;;8.37;3.70;;;11.20;98.40;;;-143.32;33.95;55471.25;4898476;29;20504;-88
2021/04/27 06:57:33;;;;;;;8.67;3.60;;;11.30;84.70;;;-143.32;34.29;55477.31;4898705;29;20452;-88
2021/04/27 07:00:00;;;;;;;17.60;3.23;;;11.00;82.70;;;-143.32;34.30;55499.53;4898358;29;20460;-89
2021/04/27 07:06:25;;;;;;;8.27;3.27;;;11.10;82.10;;;-143.32;33.56;55505.59;4898702;29;20415;-86
2021/04/27 07:08:55;;;;;;;3.97;3.20;;;11.40;78.30;;;-143.32;33.65;55475.28;4894645;29;20475;-89
2021/04/27 07:11:36;;;;;;;10.20;3.50;;;11.50;77.70;;;-143.32;33.20;55438.91;4880594;29;20479;-91
2021/04/27 07:14:03;;;;;;;4.70;2.87;;;11.70;76.50;;;-143.32;32.24;55422.75;4885212;29;20441;-89
2021/04/27 07:16:30;;;;;;;8.37;3.50;;;12.10;75.00;;;-143.32;32.71;55451.03;4879530;29;20509;-90
2021/04/27 07:19:00;;;;;;;10.17;3.00;;;12.00;73.30;;;-143.32;32.51;55459.13;4879538;29;20505;-90
2021/04/27 07:21:28;;;;;;;7.60;3.40;;;11.90;72.10;;;-143.32;32.14;55420.72;4879918;29;20516;-89
2021/04/27 07:23:54;;;;;;;8.70;2.97;;;12.30;71.80;;;-143.32;31.88;55455.06;4879443;29;20452;-88
2021/04/27 07:26:21;;;;;;;6.60;2.93;;;12.30;69.40;;;-143.32;32.21;55509.66;4883658;29;20479;-88
2021/04/27 07:28:48;;;;;;;8.03;3.43;;;11.80;67.20;;;-143.32;32.06;55434.88;4884101;29;20453;-90
2021/04/27 07:31:16;;;;;;;12.47;4.70;;;12.00;68.60;;;-143.32;31.80;55428.81;4883267;29;20456;-91
2021/04/27 07:33:47;;;;;;;15.50;4.10;;;12.40;68.60;;;-143.32;31.20;55426.78;4886758;29;20463;-93
2021/04/27 07:36:13;;;;;;;4.63;2.90;;;12.60;66.60;;;-143.32;31.27;55426.78;4883354;29;20488;-90
2021/04/27 07:38:41;;;;;;;9.43;3.53;;;12.60;64.30;;;-143.32;31.00;55426.78;4883236;29;20520;-89
2021/04/27 07:41:07;;;;;;;9.83;3.63;;;12.70;64.00;;;-143.32;31.30;55447.00;4882755;29;20566;-86
2021/04/27 07:43:34;;;;;;;5.07;2.90;;;12.90;63.80;;;-143.32;30.85;55459.13;4883150;29;20506;-90
2021/04/27 07:46:01;;;;;;;4.80;3.17;;;12.70;61.50;;;-143.32;31.64;55402.53;4883334;29;20460;-89
2021/04/27 07:48:27;;;;;;;7.47;2.87;;;12.60;62.90;;;-143.32;31.13;55436.88;4883510;29;20477;-88
2021/04/27 07:50:54;;;;;;;15.83;3.10;;;12.70;62.20;;;-143.32;30.82;55432.84;4882910;29;20535;-88
2021/04/27 07:53:21;;;;;;;10.43;3.20;;;12.90;60.40;;;-143.32;30.76;55422.75;4883253;29;20485;-91
2021/04/27 07:55:50;;;;;;;5.70;2.93;;;12.80;60.70;;;-143.32;30.89;55455.06;4883082;29;20484;-88
2021/04/27 07:58:17;;;;;;;4.27;2.80;;;12.80;59.60;;;-143.32;30.83;55475.28;4883260;29;20441;-88
2021/04/27 08:00:44;;;;;;;5.47;2.97;;;12.70;59.20;;;-143.32;30.91;55453.06;4882896;29;20862;-86
2021/04/27 08:03:10;;;;;;;5.93;3.47;;;12.70;58.70;;;-143.32;31.20;55444.97;4882995;29;20463;-88
2021/04/27 08:05:37;;;;;;;7.30;3.20;;;12.60;59.80;;;-143.32;31.08;55428.81;4883502;29;20562;-87
2021/04/27 08:08:05;;;;;;;31.67;4.60;;;12.30;57.20;;;-143.32;31.44;55481.34;4882868;29;20484;-86
2021/04/27 08:10:31;;;;;;;16.80;3.20;;;12.20;57.50;;;-143.32;31.07;55493.47;4895812;29;20547;-88
2021/04/27 08:12:59;;;;;;;10.13;3.03;;;12.10;56.40;;;-143.32;30.84;55444.97;4901966;29;20467;-90
2021/04/27 08:15:31;;;;;;;5.20;2.77;;;12.30;56.90;;;-143.32;30.56;55428.81;4901677;29;20452;-88
2021/04/27 08:18:22;;;;;;;;;;;;;;;;;;;;;
2021/04/27 08:21:08;;;;;;;4.33;2.90;;;13.40;57.20;;;-143.32;29.58;55442.94;4886765;29;20468;-91
2021/04/27 08:24:03;;;;;;;;;;;;;;;;;;;;;
2021/04/27 08:26:39;;;;;;;3.43;2.83;;;13.40;53.40;;;-143.32;29.74;55473.28;4904784;29;20842;-91
2021/04/27 08:29:22;;;;;;;;;;;;;;;;;;;;;
2021/04/27 08:31:51;;;;;;;7.93;2.80;;;13.00;54.10;;;-143.32;30.09;55459.13;4903470;29;20464;-93
2021/04/27 08:34:17;;;;;;;6.53;2.87;;;12.80;52.40;;;-143.32;29.56;55455.06;4901696;29;20440;-91
2021/04/27 08:36:45;;;;;;;17.50;3.40;;;13.20;54.00;;;-143.32;29.43;55440.94;4899863;29;20568;-92
2021/04/27 08:39:11;;;;;;;6.97;3.07;;;13.60;52.50;;;-143.32;29.24;55402.53;4900851;29;20451;-90
2021/04/27 08:41:39;;;;;;;9.70;3.10;;;13.60;51.60;;;-143.32;29.17;55436.88;4901107;29;20456;-91
2021/04/27 08:44:07;;;;;;;16.60;2.93;;;13.70;50.80;;;-143.32;28.97;55449.00;4901355;29;20460;-90
2021/04/27 08:46:33;;;;;;;10.23;3.07;;;13.80;50.10;;;-143.32;28.78;55414.66;4902955;29;20510;-89
2021/04/27 08:52:19;;;;;;;7.80;2.93;;;14.20;48.90;;;-143.32;28.78;55402.53;4831060;29;20504;-90
2021/04/27 08:54:46;;;;;;;5.13;2.80;;;14.30;49.90;;;-143.32;28.10;55430.81;4902485;29;20479;-92
2021/04/27 08:57:13;;;;;;;4.40;3.00;;;14.90;48.80;;;-143.32;28.26;55388.38;4903507;29;20456;-91
2021/04/27 08:59:41;;;;;;;3.87;2.80;;;14.70;47.60;;;-143.32;28.98;55444.97;4902439;29;20828;-88
2021/04/27 09:02:08;;;;;;;5.53;3.00;;;14.10;47.70;;;-143.32;28.78;55449.00;4901286;29;20512;-92
2021/04/27 09:04:43;;;;;;;5.60;2.70;;;14.00;48.00;;;-143.32;28.33;55428.81;4901034;29;20508;-88
2021/04/27 09:07:26;;;;;;;6.13;2.80;;;14.50;48.20;;;-143.32;28.00;55410.63;4900628;29;20444;-88
2021/04/27 09:09:57;;;;;;;5.43;2.73;;;14.80;47.30;;;-143.32;28.16;55444.97;4900144;29;20609;-87
2021/04/27 09:12:26;;;;;;;7.57;3.50;;;14.40;45.40;;;-143.32;28.20;55410.63;4900558;29;20486;-90
2021/04/27 09:14:56;;;;;;;5.10;2.83;;;14.30;45.70;;;-143.32;28.14;55447.00;4903148;29;20481;-93
2021/04/27 09:17:33;;;;;;;10.07;2.97;;;14.40;46.10;;;-143.32;28.04;55414.66;4902107;29;20444;-92
2021/04/27 09:20:00;;;;;;;10.87;3.30;;;14.60;45.30;;;-143.32;28.11;55465.19;4903928;29;20440;-91
2021/04/27 09:22:32;;;;;;;8.70;2.63;;;14.60;45.80;;;-143.32;27.42;55400.50;4903375;29;20539;-91
2021/04/27 09:25:34;;;;;;;8.30;2.73;;;15.10;44.20;;;-143.32;27.53;55400.50;4914582;29;20440;-92
2021/04/27 09:32:35;;;;;;;6.10;3.23;;;14.80;42.70;;;-143.32;27.87;55428.81;4906883;29;20441;-95
2021/04/27 09:35:33;;;;;;;5.50;2.90;;;14.70;43.20;;;-143.32;27.99;55447.00;4898349;29;20460;-92
2021/04/27 09:38:18;;;;;;;8.00;3.07;;;14.20;41.30;;;-143.32;28.54;55487.41;4904314;29;20495;-91
2021/04/27 09:40:54;;;;;;;7.07;3.80;;;13.60;40.20;;;-143.32;28.48;55489.44;4901013;29;20455;-90
2021/04/27 09:43:24;;;;;;;4.27;2.90;;;13.70;40.70;;;-143.32;28.88;55521.78;4900193;29;20535;-90
2021/04/27 09:45:53;;;;;;;9.03;3.90;;;13.40;41.00;;;-143.32;29.38;55479.34;4899877;29;20977;-89
2021/04/27 09:48:34;;;;;;;5.87;3.40;;;13.20;41.60;;;-143.32;29.15;55471.25;4899170;29;20973;-90
2021/04/27 09:51:20;;;;;;;8.50;3.13;;;13.20;41.70;;;-143.32;29.01;55440.94;4899562;29;20915;-91
2021/04/27 09:53:51;;;;;;;5.20;2.80;;;13.40;43.00;;;-143.32;28.72;55463.16;4899675;29;20543;-91
2021/04/27 09:56:35;;;;;;;6.73;3.07;;;13.40;41.20;;;-143.32;28.83;55463.16;4900198;29;20911;-90
2021/04/27 09:59:08;;;;;;;10.77;3.50;;;13.50;41.70;;;-143.32;29.11;55453.06;4901870;29;20803;-90
2021/04/27 10:01:36;;;;;;;4.30;2.50;;;13.60;42.50;;;-143.32;28.66;55471.25;4899744;29;20796;-90
2021/04/27 10:04:05;;;;;;;5.30;3.30;;;13.60;41.30;;;-143.32;28.50;55493.47;4899354;29;20501;-89
2021/04/27 10:06:32;;;;;;;7.30;3.30;;;13.40;40.90;;;-143.32;29.20;55483.38;4899637;29;20817;-90
2021/04/27 10:08:59;;;;;;;7.07;3.10;;;13.40;42.40;;;-143.32;29.30;55449.00;4903347;29;20523;-92
2021/04/27 10:11:27;;;;;;;4.23;2.70;;;13.50;42.30;;;-143.32;29.01;55501.56;4901731;29;20488;-92
2021/04/27 10:13:55;;;;;;;9.40;3.03;;;13.50;41.20;;;-143.32;29.17;55471.25;4901521;29;20511;-90
2021/04/27 10:16:25;;;;;;;4.87;3.00;;;13.20;40.90;;;-143.32;28.57;55495.50;4899479;29;21007;-91
2021/04/27 10:19:00;;;;;;;6.47;3.50;;;13.30;41.20;;;-143.32;28.21;55533.91;4900630;29;20483;-90
2021/04/27 10:21:29;;;;;;;4.30;2.97;;;13.10;38.90;;;-143.32;28.35;55525.81;4898875;29;20436;-91
2021/04/27 10:23:59;;;;;;;8.47;3.17;;;13.10;39.10;;;-143.32;28.25;55537.94;4898950;29;20809;-89
2021/04/27 10:26:28;;;;;;;9.07;3.30;;;13.10;38.50;;;-143.32;28.36;55477.31;4899167;29;20444;-90
2021/04/27 10:29:06;;;;;;;7.13;3.20;;;13.20;39.40;;;-143.32;28.28;55507.63;4899374;29;20520;-91
2021/04/27 10:31:36;;;;;;;7.10;3.10;;;13.30;39.60;;;-143.32;28.40;55515.72;4899366;29;20428;-90
2021/04/27 10:34:06;;;;;;;6.10;3.13;;;13.40;38.40;;;-143.32;28.38;55503.59;4898668;29;20527;-88
2021/04/27 10:36:37;;;;;;;5.83;3.20;;;13.40;39.10;;;-143.32;28.18;55489.44;4898844;29;20448;-89
2021/04/27 10:39:06;;;;;;;10.67;3.57;;;13.40;38.10;;;-143.32;28.35;55523.78;4898787;29;20436;-87
2021/04/27 10:41:52;;;;;;;8.50;3.03;;;13.10;38.00;;;-143.32;27.72;55552.09;4898860;29;20463;-88
2021/04/27 10:48:04;;;;;;;7.10;3.43;;;13.20;36.70;;;-143.32;27.77;55546.03;4898617;29;20419;-89
2021/04/27 10:50:39;;;;;;;6.40;3.03;;;13.20;36.60;;;-143.32;27.53;55533.91;4900243;29;20472;-92
2021/04/27 10:53:39;;;;;;;4.30;3.10;;;13.30;36.30;;;-143.32;27.60;55531.88;4904354;29;20519;-92
2021/04/27 10:59:59;;;;;;;4.20;3.10;;;13.50;36.60;;;-143.32;27.65;55529.84;4903049;29;20914;-92
2021/04/27 11:02:34;;;;;;;5.00;2.80;;;13.50;35.70;;;-143.32;27.70;55531.88;4899229;29;20440;-88